createdAt,value
2022-11-30T00:01:59.990Z,-0.30
2022-11-30T00:04:26.705Z,-0.30
2022-11-30T00:06:57.260Z,-0.40
2022-11-30T00:09:24.678Z,-0.40
2022-11-30T00:11:51.344Z,-0.40
2022-11-30T00:14:17.968Z,-0.40
2022-11-30T00:16:44.885Z,-0.40
2022-11-30T00:19:11.590Z,-0.40
2022-11-30T00:21:38.307Z,-0.40
2022-11-30T00:24:06.065Z,-0.40
2022-11-30T00:26:32.813Z,-0.30
2022-11-30T00:28:59.483Z,-0.40
2022-11-30T00:31:26.262Z,-0.30
2022-11-30T00:33:52.917Z,-0.30
2022-11-30T00:36:24.118Z,-0.40
2022-11-30T00:38:51.857Z,-0.30
2022-11-30T00:41:19.403Z,-0.40
2022-11-30T00:43:46.470Z,-0.30
2022-11-30T00:46:14.693Z,-0.30
2022-11-30T00:48:41.514Z,-0.30
2022-11-30T00:51:10.415Z,-0.30
2022-11-30T00:53:38.873Z,-0.40
2022-11-30T00:56:06.729Z,-0.30
2022-11-30T00:58:33.547Z,-0.30
2022-11-30T01:01:00.630Z,-0.30
2022-11-30T01:03:27.335Z,-0.30
2022-11-30T01:05:53.988Z,-0.40
2022-11-30T01:08:21.981Z,-0.40
2022-11-30T01:10:53.374Z,-0.40
2022-11-30T01:13:21.278Z,-0.50
2022-11-30T01:15:47.989Z,-0.50
2022-11-30T01:18:14.643Z,-0.50
2022-11-30T01:20:42.734Z,-0.50
2022-11-30T01:23:10.354Z,-0.50
2022-11-30T01:25:37.266Z,-0.40
2022-11-30T01:28:04.044Z,-0.40
2022-11-30T01:30:30.905Z,-0.40
2022-11-30T01:33:02.568Z,-0.40
2022-11-30T01:35:29.412Z,-0.40
2022-11-30T01:37:56.156Z,-0.40
2022-11-30T01:40:23.012Z,-0.50
2022-11-30T01:42:49.820Z,-0.40
2022-11-30T01:45:16.547Z,-0.30
2022-11-30T01:47:51.602Z,-0.40
2022-11-30T01:50:33.402Z,-0.30
2022-11-30T01:53:01.776Z,-0.30
2022-11-30T01:55:45.131Z,-0.30
2022-11-30T01:58:16.591Z,-0.30
2022-11-30T02:00:48.641Z,-0.30
2022-11-30T02:03:24.921Z,-0.30
2022-11-30T02:05:51.762Z,-0.30
2022-11-30T02:08:19.783Z,-0.30
2022-11-30T02:10:52.896Z,-0.30
2022-11-30T02:13:58.845Z,-0.40
2022-11-30T02:16:51.320Z,-0.30
2022-11-30T02:19:48.517Z,-0.40
2022-11-30T02:22:42.351Z,-0.30
2022-11-30T02:25:37.904Z,-0.30
2022-11-30T02:28:29.204Z,-0.40
2022-11-30T02:30:58.880Z,-0.40
2022-11-30T02:33:29.937Z,-0.40
2022-11-30T02:35:58.061Z,-0.40
2022-11-30T02:38:26.836Z,-0.40
2022-11-30T02:40:53.654Z,-0.40
2022-11-30T02:43:23.054Z,-0.40
2022-11-30T02:46:14.203Z,-0.30
2022-11-30T02:48:49.340Z,-0.40
2022-11-30T02:51:20.057Z,-0.30
2022-11-30T02:53:47.111Z,-0.40
2022-11-30T02:56:13.793Z,-0.40
2022-11-30T02:58:40.846Z,-0.40
2022-11-30T03:01:07.671Z,-0.30
2022-11-30T03:03:34.495Z,-0.30
2022-11-30T03:06:01.185Z,-0.30
2022-11-30T03:08:29.199Z,-0.30
2022-11-30T03:10:55.889Z,-0.30
2022-11-30T03:13:22.531Z,-0.30
2022-11-30T03:15:49.405Z,-0.30
2022-11-30T03:18:16.068Z,-0.20
2022-11-30T03:20:43.242Z,-0.20
2022-11-30T03:23:10.566Z,-0.20
2022-11-30T03:25:37.331Z,-0.30
2022-11-30T03:28:04.236Z,-0.20
2022-11-30T03:30:30.984Z,-0.20
2022-11-30T03:32:57.920Z,-0.30
2022-11-30T03:35:24.585Z,-0.40
2022-11-30T03:37:51.511Z,-0.40
2022-11-30T03:40:18.734Z,-0.40
2022-11-30T03:42:45.387Z,-0.40
2022-11-30T03:45:12.063Z,-0.40
2022-11-30T03:47:38.715Z,-0.40
2022-11-30T03:50:06.052Z,-0.40
2022-11-30T03:52:32.746Z,-0.40
2022-11-30T03:55:00.893Z,-0.30
2022-11-30T03:57:27.650Z,-0.40
2022-11-30T03:59:54.301Z,-0.40
2022-11-30T04:02:20.930Z,-0.40
2022-11-30T04:04:47.915Z,-0.40
2022-11-30T04:07:14.729Z,-0.40
2022-11-30T04:09:41.518Z,-0.40
2022-11-30T04:12:08.337Z,-0.40
2022-11-30T04:14:35.010Z,-0.40
2022-11-30T04:17:01.861Z,-0.40
2022-11-30T04:19:28.510Z,-0.40
2022-11-30T04:21:56.434Z,-0.40
2022-11-30T04:24:23.073Z,-0.50
2022-11-30T04:26:49.686Z,-0.50
2022-11-30T04:29:16.417Z,-0.50
2022-11-30T04:31:43.079Z,-0.40
2022-11-30T04:34:10.027Z,-0.50
2022-11-30T04:36:36.776Z,-0.50
2022-11-30T04:39:03.467Z,-0.50
2022-11-30T04:41:30.124Z,-0.50
2022-11-30T04:43:56.935Z,-0.60
2022-11-30T04:46:24.135Z,-0.60
2022-11-30T04:48:50.933Z,-0.60
2022-11-30T04:51:18.658Z,-0.60
2022-11-30T04:53:45.443Z,-0.60
2022-11-30T04:56:13.253Z,-0.60
2022-11-30T04:58:40.015Z,-0.60
2022-11-30T05:01:07.421Z,-0.60
2022-11-30T05:03:34.211Z,-0.60
2022-11-30T05:06:01.025Z,-0.60
2022-11-30T05:08:27.895Z,-0.60
2022-11-30T05:10:55.342Z,-0.60
2022-11-30T05:13:23.722Z,-0.50
2022-11-30T05:15:50.971Z,-0.60
2022-11-30T05:18:17.688Z,-0.60
2022-11-30T05:20:49.435Z,-0.60
2022-11-30T05:23:17.198Z,-0.60
2022-11-30T05:25:44.758Z,-0.50
2022-11-30T05:28:12.030Z,-0.50
2022-11-30T05:30:40.138Z,-0.50
2022-11-30T05:33:06.977Z,-0.50
2022-11-30T05:35:33.793Z,-0.50
2022-11-30T05:38:00.529Z,-0.50
2022-11-30T05:40:28.730Z,-0.50
2022-11-30T05:42:56.849Z,-0.50
2022-11-30T05:45:23.949Z,-0.50
2022-11-30T05:47:50.954Z,-0.50
2022-11-30T05:50:17.727Z,-0.50
2022-11-30T05:52:44.624Z,-0.40
2022-11-30T05:55:11.695Z,-0.50
2022-11-30T05:57:39.501Z,-0.50
2022-11-30T06:00:09.310Z,-0.50
2022-11-30T06:02:36.059Z,-0.50
2022-11-30T06:05:02.850Z,-0.50
2022-11-30T06:07:37.111Z,-0.50
2022-11-30T06:10:04.733Z,-0.50
2022-11-30T06:12:31.702Z,-0.50
2022-11-30T06:14:58.354Z,-0.50
2022-11-30T06:17:25.023Z,-0.40
2022-11-30T06:19:51.668Z,-0.40
2022-11-30T06:22:18.304Z,-0.50
2022-11-30T06:24:45.477Z,-0.50
2022-11-30T06:27:12.452Z,-0.50
2022-11-30T06:29:39.130Z,-0.40
2022-11-30T06:32:07.922Z,-0.40
2022-11-30T06:34:34.598Z,-0.50
2022-11-30T06:37:01.253Z,-0.40
2022-11-30T06:39:57.714Z,-0.40
2022-11-30T06:42:14.655Z,-0.40
2022-11-30T06:44:41.325Z,-0.50
2022-11-30T06:47:07.955Z,-0.40
2022-11-30T06:49:34.583Z,-0.50
2022-11-30T06:52:01.746Z,-0.40
2022-11-30T06:54:28.456Z,-0.50
2022-11-30T06:56:56.608Z,-0.50
2022-11-30T06:59:26.058Z,-0.50
2022-11-30T07:01:52.772Z,-0.60
2022-11-30T07:04:19.463Z,-0.50
2022-11-30T07:06:46.183Z,-0.50
2022-11-30T07:09:13.661Z,-0.40
2022-11-30T07:11:40.348Z,-0.50
2022-11-30T07:14:07.188Z,-0.40
2022-11-30T07:16:33.940Z,-0.40
2022-11-30T07:19:00.655Z,-0.40
2022-11-30T07:21:27.343Z,-0.40
2022-11-30T07:24:12.525Z,-0.40
2022-11-30T07:26:39.319Z,-0.40
2022-11-30T07:29:06.053Z,-0.50
2022-11-30T07:31:34.911Z,-0.40
2022-11-30T07:34:07.118Z,-0.50
2022-11-30T07:36:34.946Z,-0.40
2022-11-30T07:39:02.253Z,-0.50
2022-11-30T07:41:28.917Z,-0.50
2022-11-30T07:43:55.678Z,-0.50
2022-11-30T07:46:22.395Z,-0.50
2022-11-30T07:48:49.191Z,-0.60
2022-11-30T07:51:21.302Z,-0.60
2022-11-30T07:53:49.003Z,-0.60
2022-11-30T07:56:18.150Z,-0.50
2022-11-30T07:58:47.493Z,-0.50
2022-11-30T08:01:17.474Z,-0.50
2022-11-30T08:03:44.524Z,-0.50
2022-11-30T08:06:24.447Z,-0.50
2022-11-30T08:08:53.546Z,-0.50
2022-11-30T08:11:28.419Z,-0.50
2022-11-30T08:13:55.177Z,-0.40
2022-11-30T08:16:24.341Z,-0.50
2022-11-30T08:18:51.286Z,-0.50
2022-11-30T08:21:20.578Z,-0.50
2022-11-30T08:23:53.148Z,-0.50
2022-11-30T08:26:27.553Z,-0.50
2022-11-30T08:28:55.254Z,-0.50
2022-11-30T08:31:25.463Z,-0.40
2022-11-30T08:33:56.958Z,-0.40
2022-11-30T08:36:25.086Z,-0.40
2022-11-30T08:38:51.779Z,-0.40
2022-11-30T08:41:21.558Z,-0.40
2022-11-30T08:43:50.094Z,-0.30
2022-11-30T08:49:21.595Z,-0.20
2022-11-30T08:54:39.464Z,-0.20
2022-11-30T08:57:06.181Z,-0.30
2022-11-30T08:59:32.902Z,-0.20
2022-11-30T09:01:59.634Z,-0.20
2022-11-30T09:04:26.334Z,-0.20
2022-11-30T09:06:52.992Z,-0.30
2022-11-30T09:09:19.749Z,-0.30
2022-11-30T09:11:46.403Z,-0.20
2022-11-30T09:14:13.049Z,-0.20
2022-11-30T09:16:39.934Z,-0.20
2022-11-30T09:19:06.608Z,-0.20
2022-11-30T09:21:33.372Z,-0.10
2022-11-30T09:24:00.104Z,-0.10
2022-11-30T09:26:26.964Z,-0.10
2022-11-30T09:28:54.417Z,-0.10
2022-11-30T09:31:25.727Z,-0.10
2022-11-30T09:33:55.126Z,-0.10
2022-11-30T09:36:23.744Z,-0.10
2022-11-30T09:38:50.383Z,0.00
2022-11-30T09:41:45.319Z,0.00
2022-11-30T09:44:38.864Z,0.00
2022-11-30T09:47:14.796Z,0.10
2022-11-30T09:49:44.049Z,0.10
2022-11-30T09:52:24.151Z,0.10
2022-11-30T09:54:50.825Z,0.10
2022-11-30T09:57:35.002Z,0.10
2022-11-30T10:00:12.458Z,0.10
2022-11-30T10:02:39.374Z,0.10
2022-11-30T10:05:14.824Z,0.10
2022-11-30T10:07:55.278Z,0.10
2022-11-30T10:10:39.017Z,0.10
2022-11-30T10:13:24.575Z,0.20
2022-11-30T10:16:13.087Z,0.20
2022-11-30T10:18:55.074Z,0.20
2022-11-30T10:21:50.346Z,0.20
2022-11-30T10:24:49.944Z,0.30
2022-11-30T10:27:25.494Z,0.20
2022-11-30T10:29:52.093Z,0.30
2022-11-30T10:32:31.070Z,0.20
2022-11-30T10:35:04.089Z,0.10
2022-11-30T10:37:35.197Z,0.10
2022-11-30T10:40:11.355Z,0.20
2022-11-30T10:42:46.736Z,0.10
2022-11-30T10:45:23.684Z,0.10
2022-11-30T10:48:16.366Z,0.10
2022-11-30T10:50:43.347Z,0.10
2022-11-30T10:53:11.812Z,0.00
2022-11-30T10:55:44.793Z,0.00
2022-11-30T10:58:23.245Z,0.00
2022-11-30T11:01:28.359Z,0.00
2022-11-30T11:04:08.343Z,0.00
2022-11-30T11:06:35.921Z,0.00
2022-11-30T11:09:24.324Z,0.00
2022-11-30T11:12:16.979Z,-0.10
2022-11-30T11:14:43.839Z,0.00
2022-11-30T11:17:19.501Z,0.00
2022-11-30T11:19:48.438Z,0.00
2022-11-30T11:22:27.410Z,0.00
2022-11-30T11:25:09.582Z,0.10
2022-11-30T11:27:41.223Z,0.00
2022-11-30T11:30:26.106Z,0.00
2022-11-30T11:33:11.440Z,0.10
2022-11-30T11:35:42.119Z,0.10
2022-11-30T11:38:27.445Z,0.10
2022-11-30T11:41:01.840Z,0.10
2022-11-30T11:43:31.218Z,0.10
2022-11-30T11:46:14.525Z,0.20
2022-11-30T11:49:05.673Z,0.20
2022-11-30T11:51:36.462Z,0.20
2022-11-30T11:54:18.241Z,0.30
2022-11-30T11:56:45.162Z,0.30
2022-11-30T11:59:46.906Z,0.30
2022-11-30T12:02:34.198Z,0.30
2022-11-30T12:05:15.567Z,0.30
2022-11-30T12:08:17.187Z,0.40
2022-11-30T12:10:52.896Z,0.40
2022-11-30T12:13:23.310Z,0.30
2022-11-30T12:16:14.555Z,0.40
2022-11-30T12:19:08.279Z,0.40
2022-11-30T12:22:12.794Z,0.40
2022-11-30T12:24:57.394Z,0.40
2022-11-30T12:27:37.948Z,0.50
2022-11-30T12:30:23.010Z,0.50
2022-11-30T12:33:10.024Z,0.40
2022-11-30T12:35:56.086Z,0.40
2022-11-30T12:38:34.665Z,0.40
2022-11-30T12:41:20.042Z,0.40
2022-11-30T12:43:59.390Z,0.50
2022-11-30T12:46:32.757Z,0.50
2022-11-30T12:49:22.431Z,0.50
2022-11-30T12:52:01.191Z,0.50
2022-11-30T12:55:00.176Z,0.50
2022-11-30T12:57:54.011Z,0.50
2022-11-30T13:00:23.085Z,0.50
2022-11-30T13:03:24.434Z,0.40
2022-11-30T13:05:57.924Z,0.40
2022-11-30T13:08:55.611Z,0.50
2022-11-30T13:11:29.155Z,0.50
2022-11-30T13:13:59.203Z,0.50
2022-11-30T13:16:26.895Z,0.50
2022-11-30T13:19:00.771Z,0.50
2022-11-30T13:21:37.575Z,0.50
2022-11-30T13:24:17.050Z,0.50
2022-11-30T13:26:58.307Z,0.50
2022-11-30T13:29:43.985Z,0.60
2022-11-30T13:32:55.442Z,0.50
2022-11-30T13:35:30.838Z,0.60
2022-11-30T13:38:40.514Z,0.50
2022-11-30T13:41:09.210Z,0.60
2022-11-30T13:43:47.821Z,0.60
2022-11-30T13:46:23.629Z,0.60
2022-11-30T13:49:18.501Z,0.60
2022-11-30T13:51:45.278Z,0.60
2022-11-30T13:54:47.467Z,0.60
2022-11-30T13:57:43.206Z,0.60
2022-11-30T14:00:31.849Z,0.70
2022-11-30T14:03:20.809Z,0.60
2022-11-30T14:05:58.614Z,0.60
2022-11-30T14:08:26.055Z,0.60
2022-11-30T14:10:55.084Z,0.70
2022-11-30T14:13:29.036Z,0.70
2022-11-30T14:16:01.302Z,0.70
2022-11-30T14:18:31.722Z,0.70
2022-11-30T14:21:02.472Z,0.70
2022-11-30T14:23:46.897Z,0.70
2022-11-30T14:26:17.168Z,0.70
2022-11-30T14:29:07.953Z,0.70
2022-11-30T14:31:37.326Z,0.80
2022-11-30T14:34:11.845Z,0.70
2022-11-30T14:36:44.724Z,0.70
2022-11-30T14:39:34.693Z,0.70
2022-11-30T14:42:02.331Z,0.80
2022-11-30T14:44:39.564Z,0.80
2022-11-30T14:47:20.425Z,0.80
2022-11-30T14:49:49.218Z,0.80
2022-11-30T14:52:38.701Z,0.80
2022-11-30T14:55:37.355Z,0.90
2022-11-30T14:58:23.521Z,0.90
2022-11-30T15:00:50.554Z,0.90
2022-11-30T15:03:24.910Z,0.90
2022-11-30T15:05:57.300Z,0.90
2022-11-30T15:08:25.820Z,0.90
2022-11-30T15:11:04.843Z,0.90
2022-11-30T15:13:31.530Z,0.90
2022-11-30T15:15:58.207Z,0.90
2022-11-30T15:18:25.791Z,1.00
2022-11-30T15:20:59.934Z,0.90
2022-11-30T15:23:26.820Z,0.90
2022-11-30T15:26:00.370Z,0.90
2022-11-30T15:28:53.960Z,0.90
2022-11-30T15:31:20.902Z,0.90
2022-11-30T15:33:49.646Z,1.00
2022-11-30T15:36:31.843Z,0.90
2022-11-30T15:39:03.300Z,1.00
2022-11-30T15:41:31.133Z,0.90
2022-11-30T15:43:58.018Z,1.00
2022-11-30T15:46:46.336Z,0.90
2022-11-30T15:49:22.923Z,1.00
2022-11-30T15:52:19.051Z,1.00
2022-11-30T15:54:55.840Z,1.00
2022-11-30T15:57:25.019Z,1.00
2022-11-30T16:00:20.366Z,1.00
2022-11-30T16:02:48.148Z,1.00
2022-11-30T16:05:19.599Z,1.00
2022-11-30T16:07:54.200Z,1.00
2022-11-30T16:10:40.052Z,1.00
2022-11-30T16:13:07.166Z,1.00
2022-11-30T16:15:36.288Z,1.00
2022-11-30T16:18:18.965Z,1.00
2022-11-30T16:20:51.631Z,1.10
2022-11-30T16:23:19.331Z,1.10
2022-11-30T16:25:47.786Z,1.00
2022-11-30T16:28:16.470Z,1.00
2022-11-30T16:30:44.683Z,1.10
2022-11-30T16:33:15.821Z,1.00
2022-11-30T16:36:01.500Z,1.10
2022-11-30T16:38:28.881Z,1.10
2022-11-30T16:41:18.245Z,1.10
2022-11-30T16:43:46.331Z,1.10
2022-11-30T16:46:15.654Z,1.10
2022-11-30T16:48:42.762Z,1.10
2022-11-30T16:51:18.375Z,1.10
2022-11-30T16:53:45.914Z,1.10
2022-11-30T16:56:14.665Z,1.10
2022-11-30T16:58:42.485Z,1.10
2022-11-30T17:01:22.463Z,1.10
2022-11-30T17:03:51.607Z,1.10
2022-11-30T17:06:20.882Z,1.20
2022-11-30T17:08:48.755Z,1.10
2022-11-30T17:11:19.971Z,1.10
2022-11-30T17:13:46.741Z,1.10
2022-11-30T17:16:14.822Z,1.10
2022-11-30T17:18:41.977Z,1.20
2022-11-30T17:21:14.152Z,1.10
2022-11-30T17:23:40.898Z,1.20
2022-11-30T17:26:07.631Z,1.20
2022-11-30T17:28:34.397Z,1.20
2022-11-30T17:31:01.132Z,1.20
2022-11-30T17:33:32.486Z,1.20
2022-11-30T17:35:59.301Z,1.20
2022-11-30T17:38:27.655Z,1.20
2022-11-30T17:40:54.860Z,1.20
2022-11-30T17:43:22.407Z,1.20
2022-11-30T17:45:49.557Z,1.20
2022-11-30T17:48:16.319Z,1.20
2022-11-30T17:50:43.480Z,1.20
2022-11-30T17:53:17.825Z,1.20
2022-11-30T17:55:45.514Z,1.20
2022-11-30T17:58:12.169Z,1.20
2022-11-30T18:00:38.892Z,1.20
2022-11-30T18:03:05.637Z,1.20
2022-11-30T18:05:33.310Z,1.20
2022-11-30T18:08:00.735Z,1.30
2022-11-30T18:10:27.449Z,1.30
2022-11-30T18:12:56.978Z,1.30
2022-11-30T18:18:42.855Z,1.30
2022-11-30T18:18:47.723Z,1.30
2022-11-30T18:25:59.414Z,1.30
2022-11-30T18:29:28.678Z,1.30
2022-11-30T18:35:46.615Z,1.30
2022-11-30T18:42:14.608Z,1.30
2022-11-30T18:44:41.227Z,1.30
2022-11-30T18:47:12.137Z,1.30
2022-11-30T18:49:45.186Z,1.30
2022-11-30T18:56:21.613Z,1.30
2022-11-30T18:58:48.784Z,1.40
2022-11-30T19:01:34.690Z,1.30
2022-11-30T19:05:07.810Z,1.30
2022-11-30T19:08:26.932Z,1.30
2022-11-30T19:11:56.618Z,1.40
2022-11-30T19:18:23.641Z,1.40
2022-11-30T19:21:47.973Z,1.40
2022-11-30T19:24:24.428Z,1.40
2022-11-30T20:04:47.616Z,1.40
2022-11-30T20:07:14.868Z,1.50
2022-11-30T20:09:41.582Z,1.50
2022-11-30T20:12:08.231Z,1.50
2022-11-30T20:14:36.822Z,1.50
2022-11-30T20:17:03.547Z,1.50
2022-11-30T20:19:32.054Z,1.50
2022-11-30T20:21:59.348Z,1.50
2022-11-30T20:24:28.020Z,1.50
2022-11-30T20:26:54.906Z,1.50
2022-11-30T20:29:23.163Z,1.50
2022-11-30T20:31:50.295Z,1.50
2022-11-30T20:34:17.358Z,1.50
2022-11-30T20:36:45.209Z,1.50
2022-11-30T20:39:13.912Z,1.50
2022-11-30T20:41:42.396Z,1.50
2022-11-30T20:44:14.768Z,1.50
2022-11-30T20:46:50.965Z,1.50
2022-11-30T20:49:25.017Z,1.60
2022-11-30T20:52:12.751Z,1.60
2022-11-30T20:54:44.053Z,1.60
2022-11-30T20:57:13.192Z,1.60
2022-11-30T20:59:44.380Z,1.60
2022-11-30T21:02:17.400Z,1.60
2022-11-30T21:04:53.575Z,1.60
2022-11-30T21:07:20.376Z,1.60
2022-11-30T21:09:48.383Z,1.60
2022-11-30T21:12:15.402Z,1.60
2022-11-30T21:14:42.146Z,1.60
2022-11-30T21:17:09.329Z,1.60
2022-11-30T21:19:36.059Z,1.60
2022-11-30T21:22:05.224Z,1.60
2022-11-30T21:24:35.066Z,1.60
2022-11-30T21:27:01.966Z,1.60
2022-11-30T21:29:29.124Z,1.60
2022-11-30T21:31:55.845Z,1.60
2022-11-30T21:34:22.789Z,1.60
2022-11-30T21:36:52.631Z,1.60
2022-11-30T21:39:19.887Z,1.60
2022-11-30T21:41:46.674Z,1.60
2022-11-30T21:44:18.697Z,1.60
2022-11-30T21:46:51.793Z,1.60
2022-11-30T21:49:20.904Z,1.60
2022-11-30T21:51:47.623Z,1.60
2022-11-30T21:54:14.629Z,1.60
2022-11-30T21:56:44.015Z,1.70
2022-11-30T21:59:13.224Z,1.70
2022-11-30T22:01:42.950Z,1.70
2022-11-30T22:04:11.367Z,1.70
2022-11-30T22:06:39.784Z,1.70
2022-11-30T22:09:10.676Z,1.70
2022-11-30T22:11:40.099Z,1.70
2022-11-30T22:14:10.152Z,1.70
2022-11-30T22:16:36.994Z,1.70
2022-11-30T22:19:05.569Z,1.70
2022-11-30T22:21:32.743Z,1.70
2022-11-30T22:24:02.604Z,1.80
2022-11-30T22:26:31.790Z,1.80
2022-11-30T22:29:00.800Z,1.70
2022-11-30T22:31:30.289Z,1.80
2022-11-30T22:33:57.836Z,1.70
2022-11-30T22:36:27.459Z,1.70
2022-11-30T22:38:56.785Z,1.70
2022-11-30T22:41:24.221Z,1.70
2022-11-30T22:43:51.485Z,1.70
2022-11-30T22:46:26.835Z,1.70
2022-11-30T22:48:53.848Z,1.70
2022-11-30T22:51:26.636Z,1.70
2022-11-30T22:53:55.129Z,1.70
2022-11-30T22:56:26.932Z,1.70
2022-11-30T22:58:56.355Z,1.60
2022-11-30T23:01:25.120Z,1.60
2022-11-30T23:03:53.704Z,1.60
2022-11-30T23:06:21.961Z,1.60
2022-11-30T23:08:50.145Z,1.60
2022-11-30T23:11:19.709Z,1.60
2022-11-30T23:13:46.585Z,1.50
2022-11-30T23:16:15.929Z,1.60
2022-11-30T23:18:48.493Z,1.60
2022-11-30T23:21:18.399Z,1.60
2022-11-30T23:23:45.918Z,1.60
2022-11-30T23:26:20.881Z,1.60
2022-11-30T23:28:52.984Z,1.60
2022-11-30T23:31:34.037Z,1.60
2022-11-30T23:34:10.226Z,1.60
2022-11-30T23:36:37.360Z,1.60
2022-11-30T23:39:10.270Z,1.60
2022-11-30T23:41:37.159Z,1.60
2022-11-30T23:44:04.210Z,1.60
2022-11-30T23:46:31.048Z,1.60
2022-11-30T23:48:58.052Z,1.60
2022-11-30T23:51:26.720Z,1.60
2022-11-30T23:53:53.814Z,1.60
2022-11-30T23:56:22.552Z,1.60
2022-11-30T23:58:51.327Z,1.60
